createdAt,value
2018-12-08T00:00:06.393Z,44.67
2018-12-08T00:02:41.182Z,46.77
2018-12-08T00:05:14.163Z,45.47
2018-12-08T00:07:50.295Z,47.47
2018-12-08T00:10:23.288Z,44.70
2018-12-08T00:12:55.267Z,47.87
2018-12-08T00:15:31.130Z,46.40
2018-12-08T00:18:03.259Z,45.27
2018-12-08T00:20:38.204Z,46.13
2018-12-08T00:23:13.679Z,48.73
2018-12-08T00:25:49.414Z,48.67
2018-12-08T00:28:24.334Z,48.30
2018-12-08T00:31:11.987Z,49.73
2018-12-08T00:33:47.305Z,50.23
2018-12-08T00:36:24.480Z,52.37
2018-12-08T00:38:56.683Z,47.53
2018-12-08T00:44:29.830Z,48.17
2018-12-08T00:47:01.907Z,45.23
2018-12-08T00:49:34.192Z,52.07
2018-12-08T00:52:09.991Z,45.20
2018-12-08T00:54:45.381Z,43.40
2018-12-08T00:57:17.735Z,48.43
2018-12-08T00:59:52.578Z,50.20
2018-12-08T01:02:27.367Z,46.20
2018-12-08T01:05:00.910Z,46.43
2018-12-08T01:07:36.015Z,46.43
2018-12-08T01:10:10.687Z,45.27
2018-12-08T01:12:43.523Z,46.10
2018-12-08T01:15:18.530Z,45.90
2018-12-08T01:17:53.381Z,46.00
2018-12-08T01:20:26.208Z,42.97
2018-12-08T01:23:01.362Z,54.17
2018-12-08T01:25:36.433Z,40.00
2018-12-08T01:28:15.368Z,44.80
2018-12-08T01:30:47.820Z,45.57
2018-12-08T01:33:23.560Z,37.17
2018-12-08T01:35:56.084Z,45.03
2018-12-08T01:38:28.152Z,40.63
2018-12-08T01:41:00.559Z,39.43
2018-12-08T01:46:51.306Z,42.63
2018-12-08T01:52:27.602Z,48.97
2018-12-08T01:54:59.733Z,43.50
2018-12-08T01:57:31.980Z,49.57
2018-12-08T02:00:07.668Z,46.13
2018-12-08T02:02:44.901Z,47.60
2018-12-08T02:05:17.972Z,48.00
2018-12-08T02:07:51.812Z,47.30
2018-12-08T02:10:27.483Z,45.07
2018-12-08T02:13:03.172Z,45.50
2018-12-08T02:15:46.075Z,46.73
2018-12-08T02:18:17.916Z,45.93
2018-12-08T02:20:53.596Z,45.07
2018-12-08T02:23:30.631Z,46.97
2018-12-08T02:26:03.055Z,49.10
2018-12-08T02:28:39.299Z,45.93
2018-12-08T02:31:11.522Z,52.53
2018-12-08T02:33:46.369Z,51.23
2018-12-08T02:36:21.489Z,48.43
2018-12-08T02:38:53.834Z,48.40
2018-12-08T02:41:28.682Z,48.93
2018-12-08T02:44:04.682Z,50.23
2018-12-08T02:46:43.028Z,50.70
2018-12-08T02:49:15.555Z,51.37
2018-12-08T02:51:54.945Z,50.10
2018-12-08T02:54:27.614Z,55.93
2018-12-08T02:56:59.600Z,50.10
2018-12-08T02:59:32.221Z,48.23
2018-12-08T03:02:07.735Z,49.63
2018-12-08T03:04:43.061Z,50.43
2018-12-08T03:07:15.085Z,49.60
2018-12-08T03:09:51.010Z,53.40
2018-12-08T03:12:23.295Z,52.63
2018-12-08T03:14:56.362Z,56.30
2018-12-08T03:17:31.530Z,49.70
2018-12-08T03:20:07.161Z,51.23
2018-12-08T03:22:41.830Z,48.33
2018-12-08T03:25:14.442Z,49.23
2018-12-08T03:38:07.484Z,53.53
2018-12-08T03:40:39.595Z,51.57
2018-12-08T03:43:14.455Z,53.60
2018-12-08T03:45:51.589Z,54.87
2018-12-08T03:48:27.090Z,47.27
2018-12-08T03:51:02.662Z,49.80
2018-12-08T03:53:38.565Z,51.13
2018-12-08T03:56:11.137Z,49.93
2018-12-08T03:58:45.738Z,45.10
2018-12-08T04:01:22.015Z,48.07
2018-12-08T04:03:55.604Z,44.83
2018-12-08T04:06:31.988Z,52.97
2018-12-08T04:09:06.905Z,50.77
2018-12-08T04:11:42.847Z,46.83
2018-12-08T04:14:18.411Z,50.40
2018-12-08T04:16:53.726Z,48.03
2018-12-08T04:19:37.533Z,49.80
2018-12-08T04:22:09.786Z,45.93
2018-12-08T04:24:42.442Z,44.30
2018-12-08T04:27:14.886Z,44.13
2018-12-08T04:29:53.369Z,47.37
2018-12-08T04:32:25.631Z,45.73
2018-12-08T04:35:00.333Z,47.47
2018-12-08T04:37:35.361Z,43.57
2018-12-08T04:40:11.135Z,48.00
2018-12-08T04:42:42.994Z,43.53
2018-12-08T04:45:26.624Z,44.17
2018-12-08T04:48:02.150Z,49.13
2018-12-08T04:50:34.300Z,51.57
2018-12-08T04:53:08.913Z,46.70
2018-12-08T04:55:47.024Z,49.43
2018-12-08T04:58:19.295Z,43.63
2018-12-08T05:00:51.671Z,47.07
2018-12-08T05:03:26.244Z,47.83
2018-12-08T05:05:59.001Z,44.50
2018-12-08T05:08:31.541Z,49.93
2018-12-08T05:11:03.764Z,46.10
2018-12-08T05:13:38.566Z,46.63
2018-12-08T05:16:11.131Z,40.80
2018-12-08T05:18:45.984Z,46.33
2018-12-08T05:21:18.878Z,51.90
2018-12-08T05:23:54.208Z,50.07
2018-12-08T05:26:26.775Z,50.20
2018-12-08T05:28:58.825Z,51.03
2018-12-08T05:31:30.901Z,47.70
2018-12-08T05:34:02.996Z,47.53
2018-12-08T05:36:36.061Z,49.70
2018-12-08T05:39:12.159Z,51.70
2018-12-08T05:41:44.831Z,51.50
2018-12-08T05:44:17.004Z,49.40
2018-12-08T05:46:55.678Z,45.03
2018-12-08T05:49:28.059Z,49.07
2018-12-08T05:52:03.080Z,47.80
2018-12-08T05:54:37.856Z,49.60
2018-12-08T05:57:14.507Z,48.53
2018-12-08T05:59:49.792Z,48.23
2018-12-08T06:02:22.887Z,44.80
2018-12-08T06:05:00.605Z,47.13
2018-12-08T06:07:33.354Z,45.10
2018-12-08T06:10:06.155Z,45.83
2018-12-08T06:12:41.646Z,51.17
2018-12-08T06:15:14.178Z,49.20
2018-12-08T06:17:49.050Z,48.27
2018-12-08T06:20:21.402Z,47.63
2018-12-08T06:22:54.224Z,48.37
2018-12-08T06:25:29.375Z,48.10
2018-12-08T06:28:08.063Z,49.83
2018-12-08T06:30:43.002Z,48.20
2018-12-08T06:33:18.098Z,42.83
2018-12-08T06:35:50.482Z,45.87
2018-12-08T06:38:27.758Z,43.70
2018-12-08T06:41:02.630Z,43.73
2018-12-08T06:43:37.913Z,46.43
2018-12-08T06:46:10.261Z,45.40
2018-12-08T06:48:45.184Z,56.87
2018-12-08T06:51:20.444Z,50.47
2018-12-08T06:53:55.816Z,53.30
2018-12-08T06:56:30.762Z,51.73
2018-12-08T06:59:06.158Z,46.40
2018-12-08T07:01:40.995Z,48.60
2018-12-08T07:04:16.304Z,46.43
2018-12-08T07:06:48.729Z,50.93
2018-12-08T07:09:20.772Z,48.03
2018-12-08T07:11:52.699Z,48.47
2018-12-08T07:14:24.710Z,54.03
2018-12-08T07:16:57.232Z,50.70
2018-12-08T07:19:30.936Z,47.80
2018-12-08T07:22:05.518Z,50.70
2018-12-08T07:24:38.018Z,53.90
2018-12-08T07:27:09.828Z,50.80
2018-12-08T07:29:48.476Z,51.67
2018-12-08T07:32:24.286Z,56.57
2018-12-08T07:34:58.573Z,51.97
2018-12-08T07:37:33.994Z,54.67
2018-12-08T07:40:07.847Z,54.97
2018-12-08T07:42:42.965Z,53.43
2018-12-08T07:45:19.061Z,53.10
2018-12-08T07:47:51.549Z,53.03
2018-12-08T07:50:28.344Z,47.30
2018-12-08T07:53:00.867Z,55.70
2018-12-08T07:55:33.294Z,53.97
2018-12-08T07:58:08.774Z,54.17
2018-12-08T08:00:44.912Z,54.33
2018-12-08T08:03:17.813Z,52.70
2018-12-08T08:05:55.038Z,50.57
2018-12-08T08:08:30.395Z,58.93
2018-12-08T08:11:03.013Z,50.23
2018-12-08T08:13:37.783Z,41.87
2018-12-08T08:16:10.346Z,46.13
2018-12-08T08:18:42.893Z,45.80
2018-12-08T08:21:22.251Z,44.10
2018-12-08T08:23:57.607Z,41.63
2018-12-08T08:26:36.631Z,46.00
2018-12-08T08:29:08.754Z,45.83
2018-12-08T08:31:50.252Z,49.10
2018-12-08T08:34:22.807Z,48.87
2018-12-08T08:36:58.167Z,46.37
2018-12-08T08:39:34.232Z,47.47
2018-12-08T08:42:09.330Z,43.60
2018-12-08T08:44:44.242Z,46.23
2018-12-08T08:47:19.339Z,46.67
2018-12-08T08:49:56.607Z,49.17
2018-12-08T08:52:31.309Z,50.60
2018-12-08T08:55:06.519Z,51.80
2018-12-08T08:57:42.732Z,53.47
2018-12-08T09:00:14.753Z,56.87
2018-12-08T09:02:47.001Z,57.17
2018-12-08T09:05:21.730Z,53.60
2018-12-08T09:07:56.919Z,57.33
2018-12-08T09:10:30.147Z,62.40
2018-12-08T09:13:05.416Z,59.50
2018-12-08T09:15:40.498Z,58.27
2018-12-08T09:18:12.982Z,62.03
2018-12-08T09:20:47.966Z,52.23
2018-12-08T09:23:22.838Z,64.97
2018-12-08T09:25:55.521Z,58.43
2018-12-08T09:28:28.740Z,51.87
2018-12-08T09:31:04.307Z,53.67
2018-12-08T09:33:36.876Z,53.63
2018-12-08T09:36:08.720Z,53.60
2018-12-08T09:38:44.355Z,58.20
2018-12-08T09:41:19.563Z,56.07
2018-12-08T09:43:55.206Z,56.40
2018-12-08T09:46:27.395Z,50.83
2018-12-08T09:49:04.504Z,53.33
2018-12-08T09:51:37.543Z,52.20
2018-12-08T09:54:09.499Z,55.87
2018-12-08T09:56:45.648Z,51.07
2018-12-08T09:59:17.898Z,53.73
2018-12-08T10:04:27.717Z,49.53
2018-12-08T10:07:02.797Z,54.03
2018-12-08T10:09:37.583Z,54.80
2018-12-08T10:12:16.500Z,56.83
2018-12-08T10:14:51.987Z,54.70
2018-12-08T10:17:27.512Z,61.37
2018-12-08T10:20:02.439Z,55.40
2018-12-08T10:22:37.290Z,52.73
2018-12-08T10:25:12.197Z,56.03
2018-12-08T10:27:47.278Z,51.00
2018-12-08T10:30:22.714Z,44.73
2018-12-08T10:32:57.608Z,49.77
2018-12-08T10:35:34.749Z,46.63
2018-12-08T10:38:09.898Z,48.47
2018-12-08T10:40:44.951Z,43.20
2018-12-08T10:43:19.942Z,42.17
2018-12-08T10:45:55.200Z,42.57
2018-12-08T10:48:27.578Z,30.47
2018-12-08T10:51:02.334Z,36.53
2018-12-08T10:53:37.302Z,40.10
2018-12-08T10:56:12.523Z,40.20
2018-12-08T10:58:47.500Z,42.00
2018-12-08T11:01:22.203Z,40.07
2018-12-08T11:03:58.162Z,38.67
2018-12-08T11:06:30.316Z,37.33
2018-12-08T11:09:08.847Z,30.90
2018-12-08T11:32:14.078Z,28.57
2018-12-08T11:34:49.459Z,28.67
2018-12-08T11:37:22.000Z,32.53
2018-12-08T11:39:56.982Z,32.90
2018-12-08T11:42:29.355Z,29.83
2018-12-08T11:45:05.755Z,28.77
2018-12-08T11:47:41.106Z,29.80
2018-12-08T11:50:16.679Z,27.27
2018-12-08T11:52:52.729Z,27.43
2018-12-08T11:55:30.353Z,23.23
2018-12-08T11:58:03.451Z,22.03
2018-12-08T12:00:39.001Z,19.53
2018-12-08T12:03:15.622Z,19.67
2018-12-08T12:05:47.851Z,18.90
2018-12-08T12:08:22.650Z,19.33
2018-12-08T12:10:57.365Z,21.40
2018-12-08T12:13:34.934Z,25.03
2018-12-08T12:16:10.270Z,22.67
2018-12-08T12:18:45.375Z,20.50
2018-12-08T12:21:17.645Z,21.03
2018-12-08T12:23:49.760Z,23.20
2018-12-08T12:26:24.890Z,22.73
2018-12-08T12:28:59.675Z,21.40
2018-12-08T12:31:34.375Z,20.33
2018-12-08T12:52:35.849Z,20.80
2018-12-08T12:55:10.967Z,16.37
2018-12-08T12:57:46.109Z,14.63
2018-12-08T13:00:22.468Z,15.60
2018-12-08T13:02:57.401Z,13.67
2018-12-08T13:05:32.452Z,14.77
2018-12-08T13:08:07.970Z,18.73
2018-12-08T13:10:40.982Z,15.93
2018-12-08T13:13:16.684Z,16.50
2018-12-08T13:15:49.113Z,18.07
2018-12-08T13:18:21.033Z,15.90
2018-12-08T13:20:55.663Z,17.37
2018-12-08T13:23:30.597Z,16.40
2018-12-08T13:26:07.818Z,16.40
2018-12-08T13:28:39.964Z,18.03
2018-12-08T13:31:15.034Z,15.50
2018-12-08T13:33:52.324Z,15.30
2018-12-08T13:36:27.225Z,14.13
2018-12-08T13:38:59.658Z,13.77
2018-12-08T13:41:34.304Z,17.63
2018-12-08T13:44:13.514Z,14.70
2018-12-08T13:46:48.982Z,19.43
2018-12-08T13:49:23.969Z,18.97
2018-12-08T13:51:56.316Z,21.50
2018-12-08T13:54:47.434Z,21.37
2018-12-08T13:57:22.789Z,19.43
2018-12-08T13:59:55.227Z,19.33
2018-12-08T14:02:29.858Z,18.67
2018-12-08T14:05:02.228Z,19.80
2018-12-08T14:07:34.266Z,23.60
2018-12-08T14:10:15.957Z,29.77
2018-12-08T14:12:48.443Z,26.33
2018-12-08T14:15:21.236Z,27.17
2018-12-08T14:17:56.700Z,29.13
2018-12-08T14:20:33.977Z,23.50
2018-12-08T14:23:06.422Z,24.50
2018-12-08T14:25:38.478Z,23.70
2018-12-08T14:28:11.507Z,27.13
2018-12-08T14:30:48.251Z,25.70
2018-12-08T14:33:23.716Z,23.60
2018-12-08T14:35:55.833Z,22.30
2018-12-08T14:38:31.299Z,25.30
2018-12-08T14:41:07.046Z,23.07
2018-12-08T14:43:45.603Z,25.50
2018-12-08T14:46:19.939Z,25.73
2018-12-08T14:48:54.772Z,21.27
2018-12-08T14:51:27.297Z,26.60
2018-12-08T14:53:59.945Z,24.73
2018-12-08T14:56:38.291Z,27.57
2018-12-08T15:04:19.974Z,26.63
2018-12-08T15:19:46.557Z,28.87
2018-12-08T15:22:18.694Z,23.87
2018-12-08T15:24:50.677Z,26.90
2018-12-08T15:32:34.815Z,24.17
2018-12-08T15:35:09.878Z,26.23
2018-12-08T15:37:45.261Z,21.57
2018-12-08T15:40:19.832Z,21.40
2018-12-08T15:42:55.170Z,19.80
2018-12-08T15:45:30.219Z,15.03
2018-12-08T15:48:05.319Z,16.87
2018-12-08T15:50:39.938Z,16.90
2018-12-08T15:53:12.533Z,17.20
2018-12-08T15:55:44.501Z,11.33
2018-12-08T15:58:19.230Z,11.67
2018-12-08T16:00:53.971Z,11.63
2018-12-08T16:03:29.078Z,8.70
2018-12-08T16:06:07.820Z,11.93
2018-12-08T16:08:42.829Z,12.00
2018-12-08T16:11:15.143Z,8.80
2018-12-08T16:13:47.128Z,11.80
2018-12-08T16:16:19.281Z,10.33
2018-12-08T16:18:58.384Z,13.10
2018-12-08T16:21:34.162Z,11.90
2018-12-08T16:24:10.357Z,14.60
2018-12-08T16:26:46.465Z,13.43
2018-12-08T16:29:21.727Z,14.77
2018-12-08T16:31:56.728Z,15.73
2018-12-08T16:34:31.589Z,20.97
2018-12-08T16:37:07.539Z,18.10
2018-12-08T16:39:43.641Z,18.80
2018-12-08T16:42:18.673Z,18.97
2018-12-08T16:44:53.846Z,15.47
2018-12-08T16:47:26.257Z,12.93
2018-12-08T16:49:58.232Z,15.70
2018-12-08T16:52:31.518Z,19.47
2018-12-08T16:55:06.962Z,18.63
2018-12-08T16:57:41.567Z,18.00
2018-12-08T17:00:16.595Z,17.13
2018-12-08T17:02:52.081Z,22.23
2018-12-08T17:05:24.837Z,19.30
2018-12-08T17:07:57.455Z,19.53
2018-12-08T17:10:29.607Z,17.97
2018-12-08T17:13:01.715Z,21.67
2018-12-08T17:15:33.719Z,22.13
2018-12-08T17:18:08.778Z,17.40
2018-12-08T17:20:40.939Z,18.07
2018-12-08T17:23:15.529Z,20.73
2018-12-08T17:25:52.988Z,22.30
2018-12-08T17:28:27.921Z,19.67
2018-12-08T17:31:02.923Z,22.33
2018-12-08T17:33:38.152Z,23.00
2018-12-08T17:36:13.592Z,22.53
2018-12-08T17:38:54.936Z,18.40
2018-12-08T17:41:30.325Z,19.33
2018-12-08T17:44:03.615Z,23.50
2018-12-08T17:46:39.690Z,21.97
2018-12-08T17:49:16.789Z,21.83
2018-12-08T17:51:51.346Z,23.23
2018-12-08T17:54:28.339Z,20.50
2018-12-08T17:57:01.518Z,20.57
2018-12-08T17:59:38.584Z,22.83
2018-12-08T18:02:12.453Z,22.43
2018-12-08T18:04:48.542Z,22.77
2018-12-08T18:07:23.905Z,21.67
2018-12-08T18:13:06.227Z,22.43
2018-12-08T18:15:40.954Z,25.80
2018-12-08T18:18:15.966Z,23.37
2018-12-08T18:20:52.883Z,30.47
2018-12-08T18:23:28.567Z,27.57
2018-12-08T18:26:03.632Z,21.77
2018-12-08T18:28:47.707Z,22.23
2018-12-08T18:31:29.399Z,22.80
2018-12-08T18:34:04.531Z,25.63
2018-12-08T18:36:37.265Z,25.50
2018-12-08T18:39:13.639Z,24.33
2018-12-08T18:41:48.712Z,27.33
2018-12-08T18:44:25.834Z,21.73
2018-12-08T18:47:01.130Z,26.97
2018-12-08T18:49:33.612Z,21.63
2018-12-08T18:52:08.540Z,21.70
2018-12-08T18:57:45.633Z,20.70
2018-12-08T19:00:20.608Z,20.97
2018-12-08T19:02:56.027Z,20.10
2018-12-08T19:05:34.622Z,22.67
2018-12-08T19:08:09.679Z,19.33
2018-12-08T19:10:42.604Z,19.93
2018-12-08T19:13:15.974Z,17.87
2018-12-08T19:15:51.784Z,18.63
2018-12-08T19:18:24.620Z,15.93
2018-12-08T19:21:00.065Z,16.77
2018-12-08T19:23:33.976Z,20.97
2018-12-08T19:26:06.384Z,17.60
2018-12-08T19:28:38.448Z,16.43
2018-12-08T19:31:10.457Z,17.37
2018-12-08T19:33:45.535Z,15.13
2018-12-08T19:36:20.385Z,16.23
2018-12-08T19:38:55.321Z,15.57
2018-12-08T19:41:27.691Z,17.43
2018-12-08T19:43:59.841Z,15.30
2018-12-08T19:46:34.783Z,18.57
2018-12-08T19:49:11.597Z,22.73
2018-12-08T19:51:44.446Z,20.40
2018-12-08T19:54:17.302Z,20.50
2018-12-08T19:56:49.154Z,23.47
2018-12-08T19:59:21.353Z,24.13
2018-12-08T20:01:53.526Z,23.43
2018-12-08T20:04:25.644Z,21.60
2018-12-08T20:06:58.638Z,21.50
2018-12-08T20:09:40.843Z,21.17
2018-12-08T20:12:18.556Z,12.17
2018-12-08T20:14:50.556Z,13.20
2018-12-08T20:17:23.297Z,12.87
2018-12-08T20:19:56.520Z,8.97
2018-12-08T20:22:28.678Z,11.40
2018-12-08T20:25:01.802Z,10.03
2018-12-08T20:27:35.124Z,9.50
2018-12-08T20:30:09.003Z,9.23
2018-12-08T20:32:41.833Z,7.57
2018-12-08T20:35:18.381Z,10.03
2018-12-08T20:37:52.950Z,11.50
2018-12-08T20:40:25.109Z,8.27
2018-12-08T20:42:57.371Z,9.60
2018-12-08T20:45:29.519Z,12.23
2018-12-08T20:48:02.882Z,11.70
2018-12-08T20:50:39.298Z,10.37
2018-12-08T20:53:12.183Z,8.07
2018-12-08T20:55:44.688Z,11.60
2018-12-08T20:58:17.329Z,12.70
2018-12-08T21:00:49.906Z,15.03
2018-12-08T21:03:24.790Z,15.80
2018-12-08T21:05:59.846Z,10.07
2018-12-08T21:08:34.764Z,12.70
2018-12-08T21:11:07.085Z,13.43
2018-12-08T21:13:38.943Z,14.27
2018-12-08T21:16:13.742Z,12.37
2018-12-08T21:18:47.191Z,13.63
2018-12-08T21:21:19.278Z,10.40
2018-12-08T21:23:51.285Z,11.20
2018-12-08T21:26:26.466Z,13.47
2018-12-08T21:28:58.365Z,14.20
2018-12-08T21:31:30.570Z,14.13
2018-12-08T21:34:05.327Z,13.17
2018-12-08T21:36:38.037Z,11.07
2018-12-08T21:39:10.046Z,13.47
2018-12-08T21:41:44.914Z,14.23
2018-12-08T21:44:20.199Z,19.47
2018-12-08T21:46:52.589Z,15.87
2018-12-08T21:49:24.801Z,17.40
2018-12-08T21:51:56.720Z,12.77
2018-12-08T21:54:28.655Z,17.40
2018-12-08T21:57:00.838Z,21.10
2018-12-08T21:59:33.537Z,21.30
2018-12-08T22:02:08.143Z,21.40
2018-12-08T22:04:43.081Z,18.47
2018-12-08T22:07:18.354Z,21.07
2018-12-08T22:09:50.583Z,19.70
2018-12-08T22:12:26.394Z,21.37
2018-12-08T22:14:58.884Z,19.40
2018-12-08T22:17:36.307Z,22.00
2018-12-08T22:20:08.595Z,23.33
2018-12-08T22:22:49.548Z,17.07
2018-12-08T22:25:21.809Z,24.17
2018-12-08T22:28:00.541Z,18.93
2018-12-08T22:30:35.672Z,22.23
2018-12-08T22:33:08.021Z,19.57
2018-12-08T22:35:43.566Z,18.90
2018-12-08T22:38:18.750Z,18.80
2018-12-08T22:40:50.785Z,15.57
2018-12-08T22:43:23.036Z,17.17
2018-12-08T22:45:57.738Z,15.33
2018-12-08T23:01:25.443Z,20.70
2018-12-08T23:04:00.576Z,18.47
2018-12-08T23:06:32.748Z,19.17
2018-12-08T23:09:06.330Z,19.40
2018-12-08T23:11:40.132Z,21.27
2018-12-08T23:14:14.981Z,19.47
2018-12-08T23:16:50.094Z,24.83
2018-12-08T23:19:25.309Z,18.47
2018-12-08T23:22:00.390Z,24.07
2018-12-08T23:24:32.499Z,23.10
2018-12-08T23:27:07.154Z,21.53
2018-12-08T23:29:42.294Z,21.50
2018-12-08T23:32:14.535Z,23.77
2018-12-08T23:34:47.690Z,22.30
2018-12-08T23:37:23.202Z,20.60
2018-12-08T23:40:05.094Z,23.87
2018-12-08T23:42:40.506Z,24.43
2018-12-08T23:45:15.856Z,29.10
2018-12-08T23:47:50.603Z,19.50
2018-12-08T23:50:22.539Z,17.87
2018-12-08T23:52:54.568Z,16.43
2018-12-08T23:55:26.867Z,12.77
2018-12-08T23:57:58.984Z,16.90
